sensor_id;sensor_type;location;lat;lon;timestamp;P1;durP1;ratioP1;P2;durP2;ratioP2
64452;SDS011;50813;52.654;6.766;2023-04-24T00:01:45;1927.7;;;128.1;;
64452;SDS011;50813;52.654;6.766;2023-04-24T00:03:21;1999.9;;;148.0;;
64452;SDS011;50813;52.654;6.766;2023-04-24T00:04:58;1999.9;;;150.1;;
64452;SDS011;50813;52.654;6.766;2023-04-24T00:06:35;1649.0;;;113.0;;
64452;SDS011;50813;52.654;6.766;2023-04-24T00:09:48;1974.8;;;143.21;;
64452;SDS011;50813;52.654;6.766;2023-04-24T00:11:25;1999.9;;;251.2;;
64452;SDS011;50813;52.654;6.766;2023-04-24T00:13:02;1999.9;;;215.6;;
64452;SDS011;50813;52.654;6.766;2023-04-24T00:16:14;1999.9;;;188.4;;
64452;SDS011;50813;52.654;6.766;2023-04-24T00:17:51;1999.9;;;203.2;;
64452;SDS011;50813;52.654;6.766;2023-04-24T00:19:27;1999.9;;;223.6;;
64452;SDS011;50813;52.654;6.766;2023-04-24T00:22:41;1999.9;;;177.5;;
64452;SDS011;50813;52.654;6.766;2023-04-24T00:24:17;1999.9;;;159.5;;
64452;SDS011;50813;52.654;6.766;2023-04-24T00:25:54;1999.9;;;208.2;;
64452;SDS011;50813;52.654;6.766;2023-04-24T00:27:31;1999.9;;;193.8;;
64452;SDS011;50813;52.654;6.766;2023-04-24T00:30:45;1999.9;;;217.9;;
64452;SDS011;50813;52.654;6.766;2023-04-24T00:32:21;1999.9;;;194.3;;
64452;SDS011;50813;52.654;6.766;2023-04-24T00:33:57;1999.9;;;138.0;;
64452;SDS011;50813;52.654;6.766;2023-04-24T00:37:10;1186.91;;;90.4;;
64452;SDS011;50813;52.654;6.766;2023-04-24T00:38:46;1999.9;;;240.2;;
64452;SDS011;50813;52.654;6.766;2023-04-24T00:40:23;1999.9;;;130.31;;
64452;SDS011;50813;52.654;6.766;2023-04-24T00:43:36;1493.1;;;114.1;;
64452;SDS011;50813;52.654;6.766;2023-04-24T00:45:12;1999.9;;;160.4;;
64452;SDS011;50813;52.654;6.766;2023-04-24T00:46:49;1999.9;;;263.0;;
64452;SDS011;50813;52.654;6.766;2023-04-24T00:48:27;1999.9;;;179.7;;
64452;SDS011;50813;52.654;6.766;2023-04-24T00:51:42;1999.9;;;171.4;;
64452;SDS011;50813;52.654;6.766;2023-04-24T00:53:19;1999.9;;;220.6;;
64452;SDS011;50813;52.654;6.766;2023-04-24T00:54:56;1420.2;;;94.7;;
64452;SDS011;50813;52.654;6.766;2023-04-24T00:58:10;1999.9;;;196.0;;
64452;SDS011;50813;52.654;6.766;2023-04-24T00:59:47;1999.9;;;188.8;;
64452;SDS011;50813;52.654;6.766;2023-04-24T01:01:23;1999.9;;;254.6;;
64452;SDS011;50813;52.654;6.766;2023-04-24T01:04:41;1999.9;;;169.9;;
64452;SDS011;50813;52.654;6.766;2023-04-24T01:06:18;1710.2;;;110.9;;
64452;SDS011;50813;52.654;6.766;2023-04-24T01:07:56;1999.9;;;234.5;;
64452;SDS011;50813;52.654;6.766;2023-04-24T01:09:33;1999.9;;;224.7;;
64452;SDS011;50813;52.654;6.766;2023-04-24T01:12:47;1999.9;;;204.9;;
64452;SDS011;50813;52.654;6.766;2023-04-24T01:14:23;1999.9;;;140.5;;
64452;SDS011;50813;52.654;6.766;2023-04-24T01:16:02;1999.9;;;223.1;;
64452;SDS011;50813;52.654;6.766;2023-04-24T01:19:15;1999.9;;;187.9;;
64452;SDS011;50813;52.654;6.766;2023-04-24T01:20:56;1999.9;;;229.6;;
64452;SDS011;50813;52.654;6.766;2023-04-24T01:22:40;1999.9;;;198.8;;
64452;SDS011;50813;52.654;6.766;2023-04-24T01:24:17;1380.3;;;100.0;;
64452;SDS011;50813;52.654;6.766;2023-04-24T01:27:31;1986.6;;;127.9;;
64452;SDS011;50813;52.654;6.766;2023-04-24T01:29:08;1999.9;;;217.5;;
64452;SDS011;50813;52.654;6.766;2023-04-24T01:30:45;1999.9;;;200.6;;
64452;SDS011;50813;52.654;6.766;2023-04-24T01:32:22;1485.8;;;120.2;;
64452;SDS011;50813;52.654;6.766;2023-04-24T01:35:36;1800.0;;;141.1;;
64452;SDS011;50813;52.654;6.766;2023-04-24T01:37:13;1999.9;;;205.5;;
64452;SDS011;50813;52.654;6.766;2023-04-24T01:38:50;1999.9;;;194.5;;
64452;SDS011;50813;52.654;6.766;2023-04-24T01:42:05;1861.8;;;148.9;;
64452;SDS011;50813;52.654;6.766;2023-04-24T01:43:41;1272.5;;;114.2;;
64452;SDS011;50813;52.654;6.766;2023-04-24T01:45:18;1531.7;;;116.5;;
64452;SDS011;50813;52.654;6.766;2023-04-24T01:48:32;1319.1;;;106.6;;
64452;SDS011;50813;52.654;6.766;2023-04-24T01:50:10;1999.9;;;195.3;;
64452;SDS011;50813;52.654;6.766;2023-04-24T01:51:47;1999.9;;;171.8;;
64452;SDS011;50813;52.654;6.766;2023-04-24T01:53:24;1010.2;;;75.41;;
64452;SDS011;50813;52.654;6.766;2023-04-24T01:56:40;1300.91;;;94.2;;
64452;SDS011;50813;52.654;6.766;2023-04-24T01:58:19;1999.9;;;207.0;;
64452;SDS011;50813;52.654;6.766;2023-04-24T01:59:56;1999.9;;;151.0;;
64452;SDS011;50813;52.654;6.766;2023-04-24T02:03:11;1999.9;;;184.1;;
64452;SDS011;50813;52.654;6.766;2023-04-24T02:04:47;1999.9;;;165.1;;
64452;SDS011;50813;52.654;6.766;2023-04-24T02:06:24;1853.9;;;131.1;;
64452;SDS011;50813;52.654;6.766;2023-04-24T02:08:00;1408.9;;;103.2;;
64452;SDS011;50813;52.654;6.766;2023-04-24T02:11:13;1999.9;;;165.9;;
64452;SDS011;50813;52.654;6.766;2023-04-24T02:12:49;1999.9;;;182.3;;
64452;SDS011;50813;52.654;6.766;2023-04-24T02:14:26;1626.0;;;103.3;;
64452;SDS011;50813;52.654;6.766;2023-04-24T02:17:39;1626.0;;;103.3;;
64452;SDS011;50813;52.654;6.766;2023-04-24T02:19:16;1596.1;;;101.0;;
64452;SDS011;50813;52.654;6.766;2023-04-24T02:20:53;1999.9;;;130.9;;
64452;SDS011;50813;52.654;6.766;2023-04-24T02:24:05;1112.41;;;77.7;;
64452;SDS011;50813;52.654;6.766;2023-04-24T02:25:42;1728.3;;;117.0;;
64452;SDS011;50813;52.654;6.766;2023-04-24T02:27:18;1778.2;;;120.8;;
64452;SDS011;50813;52.654;6.766;2023-04-24T02:28:55;1742.0;;;131.0;;
64452;SDS011;50813;52.654;6.766;2023-04-24T02:32:09;1583.1;;;112.4;;
64452;SDS011;50813;52.654;6.766;2023-04-24T02:33:45;1375.9;;;94.7;;
64452;SDS011;50813;52.654;6.766;2023-04-24T02:35:21;1251.8;;;103.0;;
64452;SDS011;50813;52.654;6.766;2023-04-24T02:38:35;1542.6;;;113.3;;
64452;SDS011;50813;52.654;6.766;2023-04-24T02:40:12;1999.9;;;148.81;;
64452;SDS011;50813;52.654;6.766;2023-04-24T02:41:49;1999.9;;;168.3;;
64452;SDS011;50813;52.654;6.766;2023-04-24T02:45:02;1999.9;;;138.1;;
64452;SDS011;50813;52.654;6.766;2023-04-24T02:46:39;1449.2;;;103.5;;
64452;SDS011;50813;52.654;6.766;2023-04-24T02:48:16;1999.9;;;145.0;;
64452;SDS011;50813;52.654;6.766;2023-04-24T02:49:53;1999.9;;;145.0;;
64452;SDS011;50813;52.654;6.766;2023-04-24T02:53:06;1999.9;;;136.5;;
64452;SDS011;50813;52.654;6.766;2023-04-24T02:54:43;1999.9;;;139.21;;
64452;SDS011;50813;52.654;6.766;2023-04-24T02:56:19;1999.9;;;143.9;;
64452;SDS011;50813;52.654;6.766;2023-04-24T02:59:32;1331.5;;;99.7;;
64452;SDS011;50813;52.654;6.766;2023-04-24T03:01:09;1106.7;;;75.0;;
64452;SDS011;50813;52.654;6.766;2023-04-24T03:02:46;1932.1;;;142.71;;
64452;SDS011;50813;52.654;6.766;2023-04-24T03:04:23;887.5;;;66.8;;
64452;SDS011;50813;52.654;6.766;2023-04-24T03:07:35;1315.5;;;104.4;;
64452;SDS011;50813;52.654;6.766;2023-04-24T03:09:12;1225.2;;;93.1;;
64452;SDS011;50813;52.654;6.766;2023-04-24T03:10:50;1999.9;;;158.6;;
64452;SDS011;50813;52.654;6.766;2023-04-24T03:14:03;1999.9;;;182.9;;
64452;SDS011;50813;52.654;6.766;2023-04-24T03:15:40;1197.0;;;89.8;;
64452;SDS011;50813;52.654;6.766;2023-04-24T03:17:17;1746.8;;;104.4;;
64452;SDS011;50813;52.654;6.766;2023-04-24T03:20:30;940.0;;;78.8;;
64452;SDS011;50813;52.654;6.766;2023-04-24T03:22:08;1224.5;;;100.3;;
64452;SDS011;50813;52.654;6.766;2023-04-24T03:23:44;1999.9;;;163.0;;
64452;SDS011;50813;52.654;6.766;2023-04-24T03:25:21;1770.2;;;123.3;;
64452;SDS011;50813;52.654;6.766;2023-04-24T03:28:35;1009.6;;;84.0;;
64452;SDS011;50813;52.654;6.766;2023-04-24T03:30:12;1305.3;;;98.4;;
64452;SDS011;50813;52.654;6.766;2023-04-24T03:31:49;1999.9;;;149.5;;
64452;SDS011;50813;52.654;6.766;2023-04-24T03:35:03;868.8;;;75.0;;
64452;SDS011;50813;52.654;6.766;2023-04-24T03:36:39;577.9;;;53.0;;
64452;SDS011;50813;52.654;6.766;2023-04-24T03:38:16;1812.3;;;110.3;;
64452;SDS011;50813;52.654;6.766;2023-04-24T03:41:29;1849.8;;;127.5;;
64452;SDS011;50813;52.654;6.766;2023-04-24T03:43:05;1204.2;;;82.3;;
64452;SDS011;50813;52.654;6.766;2023-04-24T03:44:41;1155.41;;;97.3;;
64452;SDS011;50813;52.654;6.766;2023-04-24T03:46:18;1999.9;;;173.2;;
64452;SDS011;50813;52.654;6.766;2023-04-24T03:49:33;1938.3;;;133.6;;
64452;SDS011;50813;52.654;6.766;2023-04-24T03:51:09;1999.9;;;141.31;;
64452;SDS011;50813;52.654;6.766;2023-04-24T03:52:46;1682.1;;;123.6;;
64452;SDS011;50813;52.654;6.766;2023-04-24T03:55:59;1847.3;;;130.81;;
64452;SDS011;50813;52.654;6.766;2023-04-24T03:57:35;1738.5;;;127.6;;
64452;SDS011;50813;52.654;6.766;2023-04-24T03:59:12;1339.6;;;91.1;;
64452;SDS011;50813;52.654;6.766;2023-04-24T04:02:26;1999.9;;;145.9;;
64452;SDS011;50813;52.654;6.766;2023-04-24T04:04:02;1440.1;;;108.0;;
64452;SDS011;50813;52.654;6.766;2023-04-24T04:05:38;1999.9;;;181.9;;
64452;SDS011;50813;52.654;6.766;2023-04-24T04:07:15;1151.8;;;68.2;;
64452;SDS011;50813;52.654;6.766;2023-04-24T04:10:29;1167.5;;;86.9;;
64452;SDS011;50813;52.654;6.766;2023-04-24T04:12:06;1325.2;;;94.4;;
64452;SDS011;50813;52.654;6.766;2023-04-24T04:13:44;1263.5;;;85.6;;
64452;SDS011;50813;52.654;6.766;2023-04-24T04:16:58;1999.9;;;152.4;;
64452;SDS011;50813;52.654;6.766;2023-04-24T04:18:34;1999.9;;;197.9;;
64452;SDS011;50813;52.654;6.766;2023-04-24T04:20:11;1999.9;;;199.4;;
64452;SDS011;50813;52.654;6.766;2023-04-24T04:21:47;1599.7;;;111.0;;
64452;SDS011;50813;52.654;6.766;2023-04-24T04:25:00;1571.7;;;113.0;;
64452;SDS011;50813;52.654;6.766;2023-04-24T04:26:37;976.5;;;69.61;;
64452;SDS011;50813;52.654;6.766;2023-04-24T04:28:14;976.5;;;69.61;;
64452;SDS011;50813;52.654;6.766;2023-04-24T04:31:27;1769.9;;;132.7;;
64452;SDS011;50813;52.654;6.766;2023-04-24T04:33:03;1134.91;;;83.1;;
64452;SDS011;50813;52.654;6.766;2023-04-24T04:34:39;1999.9;;;171.3;;
64452;SDS011;50813;52.654;6.766;2023-04-24T04:37:51;1104.61;;;84.6;;
64452;SDS011;50813;52.654;6.766;2023-04-24T04:39:27;1104.61;;;84.6;;
64452;SDS011;50813;52.654;6.766;2023-04-24T04:41:04;1553.6;;;118.4;;
64452;SDS011;50813;52.654;6.766;2023-04-24T04:44:16;1999.9;;;181.6;;
64452;SDS011;50813;52.654;6.766;2023-04-24T04:45:52;1999.9;;;143.4;;
64452;SDS011;50813;52.654;6.766;2023-04-24T04:47:28;1608.5;;;124.6;;
64452;SDS011;50813;52.654;6.766;2023-04-24T04:49:04;1854.2;;;146.0;;
64452;SDS011;50813;52.654;6.766;2023-04-24T04:52:16;1922.6;;;147.31;;
64452;SDS011;50813;52.654;6.766;2023-04-24T04:53:53;1271.0;;;94.2;;
64452;SDS011;50813;52.654;6.766;2023-04-24T04:55:30;1999.9;;;155.21;;
64452;SDS011;50813;52.654;6.766;2023-04-24T04:58:42;1999.9;;;163.81;;
64452;SDS011;50813;52.654;6.766;2023-04-24T05:00:18;1426.2;;;107.2;;
64452;SDS011;50813;52.654;6.766;2023-04-24T05:01:55;1866.1;;;127.4;;
64452;SDS011;50813;52.654;6.766;2023-04-24T05:05:08;1060.3;;;85.8;;
64452;SDS011;50813;52.654;6.766;2023-04-24T05:06:44;1999.9;;;169.1;;
64452;SDS011;50813;52.654;6.766;2023-04-24T05:08:21;1999.9;;;179.1;;
64452;SDS011;50813;52.654;6.766;2023-04-24T05:09:57;1187.11;;;80.61;;
64452;SDS011;50813;52.654;6.766;2023-04-24T05:13:09;1999.9;;;136.31;;
64452;SDS011;50813;52.654;6.766;2023-04-24T05:14:45;1999.9;;;168.9;;
64452;SDS011;50813;52.654;6.766;2023-04-24T05:16:21;1519.9;;;98.2;;
64452;SDS011;50813;52.654;6.766;2023-04-24T05:19:34;1746.1;;;122.0;;
64452;SDS011;50813;52.654;6.766;2023-04-24T05:21:10;456.2;;;41.5;;
64452;SDS011;50813;52.654;6.766;2023-04-24T05:22:47;1999.9;;;206.8;;
64452;SDS011;50813;52.654;6.766;2023-04-24T05:25:59;1999.9;;;161.4;;
64452;SDS011;50813;52.654;6.766;2023-04-24T05:27:35;1762.3;;;119.2;;
64452;SDS011;50813;52.654;6.766;2023-04-24T05:29:12;1396.0;;;87.3;;
64452;SDS011;50813;52.654;6.766;2023-04-24T05:30:48;1999.9;;;152.5;;
64452;SDS011;50813;52.654;6.766;2023-04-24T05:34:00;1999.9;;;128.6;;
64452;SDS011;50813;52.654;6.766;2023-04-24T05:35:37;1274.91;;;91.8;;
64452;SDS011;50813;52.654;6.766;2023-04-24T05:37:13;1999.9;;;157.6;;
64452;SDS011;50813;52.654;6.766;2023-04-24T05:40:25;1999.9;;;157.71;;
64452;SDS011;50813;52.654;6.766;2023-04-24T05:42:01;1999.9;;;223.3;;
64452;SDS011;50813;52.654;6.766;2023-04-24T05:43:38;1523.3;;;115.8;;
64452;SDS011;50813;52.654;6.766;2023-04-24T05:46:51;1999.9;;;234.8;;
64452;SDS011;50813;52.654;6.766;2023-04-24T05:48:27;1999.9;;;161.21;;
64452;SDS011;50813;52.654;6.766;2023-04-24T05:50:04;1999.9;;;185.7;;
64452;SDS011;50813;52.654;6.766;2023-04-24T05:53:17;1999.9;;;178.3;;
64452;SDS011;50813;52.654;6.766;2023-04-24T05:54:53;1999.9;;;227.6;;
64452;SDS011;50813;52.654;6.766;2023-04-24T05:56:29;1999.9;;;234.8;;
64452;SDS011;50813;52.654;6.766;2023-04-24T05:58:06;1999.9;;;239.8;;
64452;SDS011;50813;52.654;6.766;2023-04-24T06:01:19;1999.9;;;245.7;;
64452;SDS011;50813;52.654;6.766;2023-04-24T06:02:55;1999.9;;;186.7;;
64452;SDS011;50813;52.654;6.766;2023-04-24T06:04:31;1999.9;;;151.1;;
64452;SDS011;50813;52.654;6.766;2023-04-24T06:07:44;1999.9;;;260.2;;
64452;SDS011;50813;52.654;6.766;2023-04-24T06:09:20;1999.9;;;171.4;;
64452;SDS011;50813;52.654;6.766;2023-04-24T06:10:56;1999.9;;;217.2;;
64452;SDS011;50813;52.654;6.766;2023-04-24T06:14:09;1999.9;;;211.4;;
64452;SDS011;50813;52.654;6.766;2023-04-24T06:17:21;1561.4;;;104.0;;
64452;SDS011;50813;52.654;6.766;2023-04-24T06:18:57;1766.7;;;122.5;;
64452;SDS011;50813;52.654;6.766;2023-04-24T06:22:09;1999.9;;;173.3;;
64452;SDS011;50813;52.654;6.766;2023-04-24T06:23:45;1782.3;;;114.1;;
64452;SDS011;50813;52.654;6.766;2023-04-24T06:25:24;1999.9;;;208.5;;
64452;SDS011;50813;52.654;6.766;2023-04-24T06:28:37;1510.9;;;110.4;;
64452;SDS011;50813;52.654;6.766;2023-04-24T06:30:13;1450.9;;;108.3;;
64452;SDS011;50813;52.654;6.766;2023-04-24T06:31:50;1999.9;;;140.31;;
64452;SDS011;50813;52.654;6.766;2023-04-24T06:35:03;1999.9;;;140.31;;
64452;SDS011;50813;52.654;6.766;2023-04-24T06:36:39;1999.9;;;138.6;;
64452;SDS011;50813;52.654;6.766;2023-04-24T06:38:15;1999.9;;;193.5;;
64452;SDS011;50813;52.654;6.766;2023-04-24T06:39:52;1999.9;;;222.4;;
64452;SDS011;50813;52.654;6.766;2023-04-24T06:43:04;1999.9;;;166.0;;
64452;SDS011;50813;52.654;6.766;2023-04-24T06:44:40;1778.5;;;119.6;;
64452;SDS011;50813;52.654;6.766;2023-04-24T06:46:16;1999.9;;;172.7;;
64452;SDS011;50813;52.654;6.766;2023-04-24T06:49:28;1999.9;;;163.1;;
64452;SDS011;50813;52.654;6.766;2023-04-24T06:51:05;283.2;;;27.7;;
64452;SDS011;50813;52.654;6.766;2023-04-24T06:52:41;1643.3;;;109.2;;
64452;SDS011;50813;52.654;6.766;2023-04-24T06:55:53;1999.9;;;174.4;;
64452;SDS011;50813;52.654;6.766;2023-04-24T06:57:29;1806.8;;;127.0;;
64452;SDS011;50813;52.654;6.766;2023-04-24T06:59:06;1023.5;;;94.3;;
64452;SDS011;50813;52.654;6.766;2023-04-24T07:02:18;1905.0;;;126.4;;
64452;SDS011;50813;52.654;6.766;2023-04-24T07:03:55;1999.9;;;178.6;;
64452;SDS011;50813;52.654;6.766;2023-04-24T07:05:31;1999.9;;;141.4;;
64452;SDS011;50813;52.654;6.766;2023-04-24T07:07:07;1325.2;;;100.8;;
64452;SDS011;50813;52.654;6.766;2023-04-24T07:10:19;1207.91;;;89.2;;
64452;SDS011;50813;52.654;6.766;2023-04-24T07:11:55;1817.9;;;119.4;;
64452;SDS011;50813;52.654;6.766;2023-04-24T07:13:31;931.7;;;71.3;;
64452;SDS011;50813;52.654;6.766;2023-04-24T07:16:45;1999.9;;;171.0;;
64452;SDS011;50813;52.654;6.766;2023-04-24T07:18:22;1167.91;;;90.5;;
64452;SDS011;50813;52.654;6.766;2023-04-24T07:19:58;1062.8;;;75.61;;
64452;SDS011;50813;52.654;6.766;2023-04-24T07:23:10;654.6;;;59.9;;
64452;SDS011;50813;52.654;6.766;2023-04-24T07:24:46;187.9;;;23.1;;
64452;SDS011;50813;52.654;6.766;2023-04-24T07:26:22;1441.0;;;97.9;;
64452;SDS011;50813;52.654;6.766;2023-04-24T07:27:59;1999.9;;;181.6;;
64452;SDS011;50813;52.654;6.766;2023-04-24T07:31:12;199.2;;;17.7;;
64452;SDS011;50813;52.654;6.766;2023-04-24T07:32:49;1795.9;;;129.31;;
64452;SDS011;50813;52.654;6.766;2023-04-24T07:34:25;503.8;;;42.7;;
64452;SDS011;50813;52.654;6.766;2023-04-24T07:37:37;125.6;;;14.2;;
64452;SDS011;50813;52.654;6.766;2023-04-24T07:39:14;32.1;;;5.0;;
64452;SDS011;50813;52.654;6.766;2023-04-24T07:40:51;53.2;;;10.8;;
64452;SDS011;50813;52.654;6.766;2023-04-24T07:44:04;152.9;;;19.91;;
64452;SDS011;50813;52.654;6.766;2023-04-24T07:45:40;842.4;;;67.2;;
64452;SDS011;50813;52.654;6.766;2023-04-24T07:47:16;344.8;;;33.0;;
64452;SDS011;50813;52.654;6.766;2023-04-24T07:48:52;112.8;;;14.6;;
64452;SDS011;50813;52.654;6.766;2023-04-24T07:52:05;114.0;;;13.6;;
64452;SDS011;50813;52.654;6.766;2023-04-24T07:53:42;322.41;;;30.4;;
64452;SDS011;50813;52.654;6.766;2023-04-24T07:55:19;49.7;;;6.9;;
64452;SDS011;50813;52.654;6.766;2023-04-24T07:58:32;174.9;;;20.41;;
64452;SDS011;50813;52.654;6.766;2023-04-24T08:00:08;156.31;;;15.8;;
64452;SDS011;50813;52.654;6.766;2023-04-24T08:01:45;449.1;;;40.81;;
64452;SDS011;50813;52.654;6.766;2023-04-24T08:04:57;223.5;;;23.7;;
64452;SDS011;50813;52.654;6.766;2023-04-24T08:06:34;387.9;;;30.2;;
64452;SDS011;50813;52.654;6.766;2023-04-24T08:08:10;657.3;;;51.9;;
64452;SDS011;50813;52.654;6.766;2023-04-24T08:11:22;132.6;;;20.0;;
64452;SDS011;50813;52.654;6.766;2023-04-24T08:12:59;482.9;;;35.4;;
64452;SDS011;50813;52.654;6.766;2023-04-24T08:14:35;377.7;;;36.21;;
64452;SDS011;50813;52.654;6.766;2023-04-24T08:16:11;1336.5;;;77.7;;
64452;SDS011;50813;52.654;6.766;2023-04-24T08:19:24;1781.4;;;120.0;;
64452;SDS011;50813;52.654;6.766;2023-04-24T08:21:00;1107.41;;;85.1;;
64452;SDS011;50813;52.654;6.766;2023-04-24T08:22:36;466.3;;;35.6;;
64452;SDS011;50813;52.654;6.766;2023-04-24T08:25:48;1136.5;;;73.91;;
64452;SDS011;50813;52.654;6.766;2023-04-24T08:27:25;907.1;;;66.1;;
64452;SDS011;50813;52.654;6.766;2023-04-24T08:29:01;196.8;;;20.7;;
64452;SDS011;50813;52.654;6.766;2023-04-24T08:32:15;185.6;;;20.8;;
64452;SDS011;50813;52.654;6.766;2023-04-24T08:33:51;299.91;;;22.4;;
64452;SDS011;50813;52.654;6.766;2023-04-24T08:35:27;198.8;;;16.11;;
64452;SDS011;50813;52.654;6.766;2023-04-24T08:37:03;209.3;;;20.8;;
64452;SDS011;50813;52.654;6.766;2023-04-24T08:40:15;513.6;;;43.5;;
64452;SDS011;50813;52.654;6.766;2023-04-24T08:41:52;218.4;;;15.5;;
64452;SDS011;50813;52.654;6.766;2023-04-24T08:43:29;89.8;;;12.1;;
64452;SDS011;50813;52.654;6.766;2023-04-24T08:46:47;132.31;;;14.2;;
64452;SDS011;50813;52.654;6.766;2023-04-24T08:48:24;67.8;;;10.5;;
64452;SDS011;50813;52.654;6.766;2023-04-24T08:50:02;129.1;;;17.11;;
64452;SDS011;50813;52.654;6.766;2023-04-24T08:51:39;6.7;;;3.9;;
64452;SDS011;50813;52.654;6.766;2023-04-24T08:54:53;177.4;;;14.9;;
64452;SDS011;50813;52.654;6.766;2023-04-24T08:56:30;38.0;;;4.91;;
64452;SDS011;50813;52.654;6.766;2023-04-24T08:58:10;19.7;;;8.31;;
64452;SDS011;50813;52.654;6.766;2023-04-24T09:01:22;38.1;;;12.4;;
64452;SDS011;50813;52.654;6.766;2023-04-24T09:03:01;802.0;;;52.4;;
64452;SDS011;50813;52.654;6.766;2023-04-24T09:04:40;457.4;;;35.6;;
64452;SDS011;50813;52.654;6.766;2023-04-24T09:06:18;130.4;;;20.3;;
64452;SDS011;50813;52.654;6.766;2023-04-24T09:09:38;225.0;;;28.3;;
64452;SDS011;50813;52.654;6.766;2023-04-24T09:11:15;187.9;;;21.4;;
64452;SDS011;50813;52.654;6.766;2023-04-24T09:12:52;382.9;;;42.5;;
64452;SDS011;50813;52.654;6.766;2023-04-24T09:16:06;100.5;;;15.9;;
64452;SDS011;50813;52.654;6.766;2023-04-24T09:17:43;300.41;;;28.9;;
64452;SDS011;50813;52.654;6.766;2023-04-24T09:19:19;325.91;;;32.21;;
64452;SDS011;50813;52.654;6.766;2023-04-24T09:20:57;70.41;;;15.8;;
64452;SDS011;50813;52.654;6.766;2023-04-24T09:24:14;64.6;;;13.9;;
64452;SDS011;50813;52.654;6.766;2023-04-24T09:25:54;208.2;;;29.2;;
64452;SDS011;50813;52.654;6.766;2023-04-24T09:27:31;164.3;;;23.0;;
64452;SDS011;50813;52.654;6.766;2023-04-24T09:31:01;430.8;;;35.5;;
64452;SDS011;50813;52.654;6.766;2023-04-24T09:32:38;82.1;;;21.3;;
64452;SDS011;50813;52.654;6.766;2023-04-24T09:34:18;100.3;;;22.5;;
64452;SDS011;50813;52.654;6.766;2023-04-24T09:35:58;107.3;;;22.6;;
64452;SDS011;50813;52.654;6.766;2023-04-24T09:39:12;106.1;;;23.9;;
64452;SDS011;50813;52.654;6.766;2023-04-24T09:40:51;36.5;;;18.41;;
64452;SDS011;50813;52.654;6.766;2023-04-24T09:42:28;99.3;;;21.8;;
64452;SDS011;50813;52.654;6.766;2023-04-24T09:44:10;303.41;;;42.7;;
64452;SDS011;50813;52.654;6.766;2023-04-24T09:47:25;204.7;;;38.71;;
64452;SDS011;50813;52.654;6.766;2023-04-24T09:49:07;149.21;;;27.5;;
64452;SDS011;50813;52.654;6.766;2023-04-24T09:50:45;65.5;;;20.3;;
64452;SDS011;50813;52.654;6.766;2023-04-24T09:52:22;205.9;;;31.5;;
64452;SDS011;50813;52.654;6.766;2023-04-24T09:55:38;162.4;;;28.5;;
64452;SDS011;50813;52.654;6.766;2023-04-24T09:57:15;70.11;;;20.6;;
64452;SDS011;50813;52.654;6.766;2023-04-24T09:58:51;95.4;;;20.9;;
64452;SDS011;50813;52.654;6.766;2023-04-24T10:02:15;263.2;;;34.5;;
64452;SDS011;50813;52.654;6.766;2023-04-24T10:03:53;95.4;;;28.4;;
64452;SDS011;50813;52.654;6.766;2023-04-24T10:05:30;193.5;;;30.0;;
64452;SDS011;50813;52.654;6.766;2023-04-24T10:07:07;144.0;;;23.5;;
64452;SDS011;50813;52.654;6.766;2023-04-24T10:10:20;134.0;;;22.9;;
64452;SDS011;50813;52.654;6.766;2023-04-24T10:11:57;61.6;;;17.0;;
64452;SDS011;50813;52.654;6.766;2023-04-24T10:13:35;164.3;;;32.9;;
64452;SDS011;50813;52.654;6.766;2023-04-24T10:16:49;114.9;;;20.6;;
64452;SDS011;50813;52.654;6.766;2023-04-24T10:18:28;384.6;;;42.2;;
64452;SDS011;50813;52.654;6.766;2023-04-24T10:20:06;196.6;;;29.1;;
64452;SDS011;50813;52.654;6.766;2023-04-24T10:21:43;89.3;;;19.61;;
64452;SDS011;50813;52.654;6.766;2023-04-24T10:24:58;177.9;;;22.4;;
64452;SDS011;50813;52.654;6.766;2023-04-24T10:26:35;79.2;;;20.41;;
64452;SDS011;50813;52.654;6.766;2023-04-24T10:28:11;162.21;;;23.4;;
64452;SDS011;50813;52.654;6.766;2023-04-24T10:31:31;506.4;;;45.0;;
64452;SDS011;50813;52.654;6.766;2023-04-24T10:33:07;108.0;;;21.5;;
64452;SDS011;50813;52.654;6.766;2023-04-24T10:34:44;344.5;;;29.5;;
64452;SDS011;50813;52.654;6.766;2023-04-24T10:36:21;224.1;;;30.4;;
64452;SDS011;50813;52.654;6.766;2023-04-24T10:39:41;19.61;;;10.8;;
64452;SDS011;50813;52.654;6.766;2023-04-24T10:41:17;152.9;;;16.2;;
64452;SDS011;50813;52.654;6.766;2023-04-24T10:42:54;123.2;;;16.8;;
64452;SDS011;50813;52.654;6.766;2023-04-24T10:46:16;242.2;;;26.4;;
64452;SDS011;50813;52.654;6.766;2023-04-24T10:47:57;19.61;;;11.6;;
64452;SDS011;50813;52.654;6.766;2023-04-24T10:49:34;1999.9;;;142.5;;
64452;SDS011;50813;52.654;6.766;2023-04-24T10:51:12;826.1;;;55.2;;
64452;SDS011;50813;52.654;6.766;2023-04-24T10:54:26;525.4;;;41.6;;
64452;SDS011;50813;52.654;6.766;2023-04-24T10:56:04;891.5;;;61.0;;
64452;SDS011;50813;52.654;6.766;2023-04-24T10:58:00;141.6;;;13.7;;
64452;SDS011;50813;52.654;6.766;2023-04-24T10:59:38;214.4;;;16.3;;
64452;SDS011;50813;52.654;6.766;2023-04-24T11:03:12;501.4;;;37.71;;
64452;SDS011;50813;52.654;6.766;2023-04-24T11:05:02;306.41;;;25.8;;
64452;SDS011;50813;52.654;6.766;2023-04-24T11:06:39;884.6;;;48.3;;
64452;SDS011;50813;52.654;6.766;2023-04-24T11:08:21;48.5;;;5.9;;
64452;SDS011;50813;52.654;6.766;2023-04-24T11:10:00;50.5;;;7.1;;
64452;SDS011;50813;52.654;6.766;2023-04-24T11:13:15;99.7;;;10.21;;
64452;SDS011;50813;52.654;6.766;2023-04-24T11:15:00;281.41;;;24.6;;
64452;SDS011;50813;52.654;6.766;2023-04-24T11:16:44;15.9;;;6.0;;
64452;SDS011;50813;52.654;6.766;2023-04-24T11:18:36;233.5;;;16.11;;
64452;SDS011;50813;52.654;6.766;2023-04-24T11:20:16;367.1;;;25.7;;
64452;SDS011;50813;52.654;6.766;2023-04-24T11:23:35;448.1;;;30.5;;
64452;SDS011;50813;52.654;6.766;2023-04-24T11:25:11;475.8;;;33.71;;
64452;SDS011;50813;52.654;6.766;2023-04-24T11:26:47;65.41;;;11.8;;
64452;SDS011;50813;52.654;6.766;2023-04-24T11:30:00;117.6;;;9.81;;
64452;SDS011;50813;52.654;6.766;2023-04-24T11:31:38;74.8;;;12.4;;
64452;SDS011;50813;52.654;6.766;2023-04-24T11:33:19;11.1;;;4.91;;
64452;SDS011;50813;52.654;6.766;2023-04-24T11:34:56;433.6;;;40.6;;
64452;SDS011;50813;52.654;6.766;2023-04-24T11:38:11;60.0;;;10.3;;
64452;SDS011;50813;52.654;6.766;2023-04-24T11:39:50;416.8;;;28.5;;
64452;SDS011;50813;52.654;6.766;2023-04-24T11:41:28;536.1;;;34.31;;
64452;SDS011;50813;52.654;6.766;2023-04-24T11:44:42;536.1;;;34.31;;
64452;SDS011;50813;52.654;6.766;2023-04-24T11:46:20;488.7;;;35.21;;
64452;SDS011;50813;52.654;6.766;2023-04-24T11:47:56;413.1;;;27.4;;
64452;SDS011;50813;52.654;6.766;2023-04-24T11:49:33;266.7;;;24.5;;
64452;SDS011;50813;52.654;6.766;2023-04-24T11:52:49;54.0;;;8.31;;
64452;SDS011;50813;52.654;6.766;2023-04-24T11:54:26;175.4;;;19.41;;
64452;SDS011;50813;52.654;6.766;2023-04-24T11:56:02;575.1;;;40.5;;
64452;SDS011;50813;52.654;6.766;2023-04-24T11:59:17;289.3;;;23.2;;
64452;SDS011;50813;52.654;6.766;2023-04-24T12:00:55;109.6;;;9.0;;
64452;SDS011;50813;52.654;6.766;2023-04-24T12:02:32;620.5;;;39.31;;
64452;SDS011;50813;52.654;6.766;2023-04-24T12:04:08;247.7;;;18.2;;
64452;SDS011;50813;52.654;6.766;2023-04-24T12:07:21;246.5;;;17.8;;
64452;SDS011;50813;52.654;6.766;2023-04-24T12:08:59;416.8;;;33.8;;
64452;SDS011;50813;52.654;6.766;2023-04-24T12:10:35;59.1;;;6.9;;
64452;SDS011;50813;52.654;6.766;2023-04-24T12:13:48;755.5;;;46.8;;